sensor_id;sensor_type;location;lat;lon;timestamp;P1;durP1;ratioP1;P2;durP2;ratioP2
80307;SDS011;69616;43.522;1.348;2023-11-25T00:00:52;5.40;;;2.00;;
80307;SDS011;69616;43.522;1.348;2023-11-25T00:03:19;6.32;;;2.72;;
80307;SDS011;69616;43.522;1.348;2023-11-25T00:05:44;7.07;;;2.70;;
80307;SDS011;69616;43.522;1.348;2023-11-25T00:08:10;8.13;;;2.47;;
80307;SDS011;69616;43.522;1.348;2023-11-25T00:10:35;6.07;;;2.80;;
80307;SDS011;69616;43.522;1.348;2023-11-25T00:13:01;6.03;;;2.30;;
80307;SDS011;69616;43.522;1.348;2023-11-25T00:15:27;6.13;;;2.50;;
80307;SDS011;69616;43.522;1.348;2023-11-25T00:17:52;5.23;;;1.90;;
80307;SDS011;69616;43.522;1.348;2023-11-25T00:20:18;5.18;;;2.10;;
80307;SDS011;69616;43.522;1.348;2023-11-25T00:22:44;5.17;;;2.03;;
80307;SDS011;69616;43.522;1.348;2023-11-25T00:25:10;4.57;;;1.70;;
80307;SDS011;69616;43.522;1.348;2023-11-25T00:27:37;5.15;;;2.15;;
80307;SDS011;69616;43.522;1.348;2023-11-25T00:30:03;6.15;;;2.00;;
80307;SDS011;69616;43.522;1.348;2023-11-25T00:32:29;5.27;;;1.90;;
80307;SDS011;69616;43.522;1.348;2023-11-25T00:34:55;4.95;;;1.70;;
80307;SDS011;69616;43.522;1.348;2023-11-25T00:37:21;5.80;;;2.20;;
80307;SDS011;69616;43.522;1.348;2023-11-25T00:39:47;5.47;;;1.93;;
80307;SDS011;69616;43.522;1.348;2023-11-25T00:42:12;6.03;;;2.28;;
80307;SDS011;69616;43.522;1.348;2023-11-25T00:44:38;4.40;;;1.53;;
80307;SDS011;69616;43.522;1.348;2023-11-25T00:47:03;6.23;;;1.60;;
80307;SDS011;69616;43.522;1.348;2023-11-25T00:49:30;4.70;;;1.40;;
80307;SDS011;69616;43.522;1.348;2023-11-25T00:51:57;4.65;;;1.52;;
80307;SDS011;69616;43.522;1.348;2023-11-25T00:54:23;4.00;;;1.40;;
80307;SDS011;69616;43.522;1.348;2023-11-25T00:56:48;4.70;;;1.10;;
80307;SDS011;69616;43.522;1.348;2023-11-25T00:59:13;4.63;;;1.30;;
80307;SDS011;69616;43.522;1.348;2023-11-25T01:01:39;3.93;;;0.90;;
80307;SDS011;69616;43.522;1.348;2023-11-25T01:04:05;3.57;;;0.93;;
80307;SDS011;69616;43.522;1.348;2023-11-25T01:06:30;3.00;;;0.70;;
80307;SDS011;69616;43.522;1.348;2023-11-25T01:08:55;3.33;;;0.80;;
80307;SDS011;69616;43.522;1.348;2023-11-25T01:11:21;4.20;;;0.93;;
80307;SDS011;69616;43.522;1.348;2023-11-25T01:13:46;3.20;;;0.80;;
80307;SDS011;69616;43.522;1.348;2023-11-25T01:16:15;2.93;;;0.70;;
80307;SDS011;69616;43.522;1.348;2023-11-25T01:18:41;4.00;;;0.82;;
80307;SDS011;69616;43.522;1.348;2023-11-25T01:21:07;3.53;;;0.80;;
80307;SDS011;69616;43.522;1.348;2023-11-25T01:23:32;4.30;;;1.00;;
80307;SDS011;69616;43.522;1.348;2023-11-25T01:25:57;4.27;;;1.20;;
80307;SDS011;69616;43.522;1.348;2023-11-25T01:28:23;4.57;;;1.00;;
80307;SDS011;69616;43.522;1.348;2023-11-25T01:30:48;3.43;;;1.03;;
80307;SDS011;69616;43.522;1.348;2023-11-25T01:33:14;4.37;;;1.00;;
80307;SDS011;69616;43.522;1.348;2023-11-25T01:35:39;5.57;;;1.47;;
80307;SDS011;69616;43.522;1.348;2023-11-25T01:38:06;6.18;;;1.20;;
80307;SDS011;69616;43.522;1.348;2023-11-25T01:40:32;3.90;;;1.10;;
80307;SDS011;69616;43.522;1.348;2023-11-25T01:42:57;4.40;;;1.20;;
80307;SDS011;69616;43.522;1.348;2023-11-25T01:45:26;5.07;;;1.45;;
80307;SDS011;69616;43.522;1.348;2023-11-25T01:47:52;4.35;;;1.27;;
80307;SDS011;69616;43.522;1.348;2023-11-25T01:50:19;4.53;;;1.38;;
80307;SDS011;69616;43.522;1.348;2023-11-25T01:52:45;4.00;;;1.30;;
80307;SDS011;69616;43.522;1.348;2023-11-25T01:55:11;4.15;;;1.13;;
80307;SDS011;69616;43.522;1.348;2023-11-25T01:57:38;4.57;;;1.40;;
80307;SDS011;69616;43.522;1.348;2023-11-25T02:00:04;4.32;;;1.30;;
80307;SDS011;69616;43.522;1.348;2023-11-25T02:02:33;4.85;;;1.30;;
80307;SDS011;69616;43.522;1.348;2023-11-25T02:05:00;4.80;;;1.50;;
80307;SDS011;69616;43.522;1.348;2023-11-25T02:07:26;5.30;;;1.42;;
80307;SDS011;69616;43.522;1.348;2023-11-25T02:09:51;4.72;;;1.70;;
80307;SDS011;69616;43.522;1.348;2023-11-25T02:12:17;4.90;;;1.33;;
80307;SDS011;69616;43.522;1.348;2023-11-25T02:14:42;4.93;;;1.50;;
80307;SDS011;69616;43.522;1.348;2023-11-25T02:17:08;3.67;;;1.40;;
80307;SDS011;69616;43.522;1.348;2023-11-25T02:19:35;6.20;;;1.60;;
80307;SDS011;69616;43.522;1.348;2023-11-25T02:22:00;4.33;;;1.70;;
80307;SDS011;69616;43.522;1.348;2023-11-25T02:24:25;5.20;;;1.60;;
80307;SDS011;69616;43.522;1.348;2023-11-25T02:27:01;6.28;;;1.45;;
80307;SDS011;69616;43.522;1.348;2023-11-25T02:29:31;5.30;;;1.65;;
80307;SDS011;69616;43.522;1.348;2023-11-25T02:31:58;8.10;;;1.85;;
80307;SDS011;69616;43.522;1.348;2023-11-25T02:34:28;3.83;;;1.17;;
80307;SDS011;69616;43.522;1.348;2023-11-25T02:36:54;4.10;;;1.33;;
80307;SDS011;69616;43.522;1.348;2023-11-25T02:39:20;5.55;;;1.40;;
80307;SDS011;69616;43.522;1.348;2023-11-25T02:41:48;6.50;;;1.50;;
80307;SDS011;69616;43.522;1.348;2023-11-25T02:44:18;6.35;;;1.63;;
80307;SDS011;69616;43.522;1.348;2023-11-25T02:46:44;6.72;;;1.80;;
80307;SDS011;69616;43.522;1.348;2023-11-25T02:49:14;6.15;;;1.55;;
80307;SDS011;69616;43.522;1.348;2023-11-25T02:51:49;5.10;;;1.50;;
80307;SDS011;69616;43.522;1.348;2023-11-25T02:54:16;5.10;;;1.30;;
80307;SDS011;69616;43.522;1.348;2023-11-25T02:56:42;6.80;;;1.60;;
80307;SDS011;69616;43.522;1.348;2023-11-25T02:59:07;6.90;;;1.80;;
80307;SDS011;69616;43.522;1.348;2023-11-25T03:01:34;5.93;;;1.90;;
80307;SDS011;69616;43.522;1.348;2023-11-25T03:04:01;8.75;;;2.25;;
80307;SDS011;69616;43.522;1.348;2023-11-25T03:06:30;6.63;;;2.10;;
80307;SDS011;69616;43.522;1.348;2023-11-25T03:08:56;8.20;;;2.00;;
80307;SDS011;69616;43.522;1.348;2023-11-25T03:11:22;7.85;;;2.00;;
80307;SDS011;69616;43.522;1.348;2023-11-25T03:13:48;8.35;;;2.17;;
80307;SDS011;69616;43.522;1.348;2023-11-25T03:16:13;5.30;;;1.93;;
80307;SDS011;69616;43.522;1.348;2023-11-25T03:18:39;6.45;;;1.80;;
80307;SDS011;69616;43.522;1.348;2023-11-25T03:21:05;9.57;;;2.50;;
80307;SDS011;69616;43.522;1.348;2023-11-25T03:23:33;8.20;;;2.40;;
80307;SDS011;69616;43.522;1.348;2023-11-25T03:25:58;7.17;;;2.40;;
80307;SDS011;69616;43.522;1.348;2023-11-25T03:28:24;7.30;;;2.30;;
80307;SDS011;69616;43.522;1.348;2023-11-25T03:30:50;11.57;;;2.53;;
80307;SDS011;69616;43.522;1.348;2023-11-25T03:33:15;10.37;;;2.33;;
80307;SDS011;69616;43.522;1.348;2023-11-25T03:35:41;7.68;;;2.33;;
80307;SDS011;69616;43.522;1.348;2023-11-25T03:38:06;11.93;;;3.33;;
80307;SDS011;69616;43.522;1.348;2023-11-25T03:40:33;8.35;;;2.65;;
80307;SDS011;69616;43.522;1.348;2023-11-25T03:42:58;9.33;;;2.40;;
80307;SDS011;69616;43.522;1.348;2023-11-25T03:45:24;9.82;;;2.40;;
80307;SDS011;69616;43.522;1.348;2023-11-25T03:47:51;11.00;;;2.87;;
80307;SDS011;69616;43.522;1.348;2023-11-25T03:50:18;10.13;;;2.63;;
80307;SDS011;69616;43.522;1.348;2023-11-25T03:52:43;8.80;;;2.53;;
80307;SDS011;69616;43.522;1.348;2023-11-25T03:55:09;9.63;;;2.50;;
80307;SDS011;69616;43.522;1.348;2023-11-25T03:57:35;10.30;;;2.90;;
80307;SDS011;69616;43.522;1.348;2023-11-25T04:00:04;9.60;;;3.17;;
80307;SDS011;69616;43.522;1.348;2023-11-25T04:02:40;10.23;;;2.55;;
80307;SDS011;69616;43.522;1.348;2023-11-25T04:05:09;12.30;;;2.97;;
80307;SDS011;69616;43.522;1.348;2023-11-25T04:07:36;13.43;;;3.00;;
80307;SDS011;69616;43.522;1.348;2023-11-25T04:10:02;11.50;;;2.60;;
80307;SDS011;69616;43.522;1.348;2023-11-25T04:12:38;9.33;;;2.77;;
80307;SDS011;69616;43.522;1.348;2023-11-25T04:15:04;11.98;;;3.30;;
80307;SDS011;69616;43.522;1.348;2023-11-25T04:17:30;14.88;;;3.40;;
80307;SDS011;69616;43.522;1.348;2023-11-25T04:19:56;19.23;;;4.27;;
80307;SDS011;69616;43.522;1.348;2023-11-25T04:22:22;13.80;;;3.42;;
80307;SDS011;69616;43.522;1.348;2023-11-25T04:24:49;15.82;;;3.75;;
80307;SDS011;69616;43.522;1.348;2023-11-25T04:27:14;11.43;;;3.33;;
80307;SDS011;69616;43.522;1.348;2023-11-25T04:29:40;20.45;;;3.72;;
80307;SDS011;69616;43.522;1.348;2023-11-25T04:32:07;10.73;;;3.38;;
80307;SDS011;69616;43.522;1.348;2023-11-25T04:34:34;13.63;;;3.67;;
80307;SDS011;69616;43.522;1.348;2023-11-25T04:36:59;9.00;;;3.20;;
80307;SDS011;69616;43.522;1.348;2023-11-25T04:39:25;12.23;;;3.40;;
80307;SDS011;69616;43.522;1.348;2023-11-25T04:41:50;12.15;;;4.00;;
80307;SDS011;69616;43.522;1.348;2023-11-25T04:44:16;13.53;;;3.03;;
80307;SDS011;69616;43.522;1.348;2023-11-25T04:46:43;10.00;;;3.37;;
80307;SDS011;69616;43.522;1.348;2023-11-25T04:49:10;10.80;;;3.28;;
80307;SDS011;69616;43.522;1.348;2023-11-25T04:51:36;13.65;;;3.65;;
80307;SDS011;69616;43.522;1.348;2023-11-25T04:54:02;8.70;;;3.03;;
80307;SDS011;69616;43.522;1.348;2023-11-25T04:56:28;13.25;;;3.25;;
80307;SDS011;69616;43.522;1.348;2023-11-25T04:58:53;14.63;;;3.33;;
80307;SDS011;69616;43.522;1.348;2023-11-25T05:01:18;18.03;;;3.30;;
80307;SDS011;69616;43.522;1.348;2023-11-25T05:03:44;12.67;;;3.20;;
80307;SDS011;69616;43.522;1.348;2023-11-25T05:24:19;13.20;;;3.30;;
80307;SDS011;69616;43.522;1.348;2023-11-25T05:26:45;11.32;;;2.97;;
80307;SDS011;69616;43.522;1.348;2023-11-25T05:29:10;13.77;;;3.00;;
80307;SDS011;69616;43.522;1.348;2023-11-25T05:31:36;13.35;;;2.58;;
80307;SDS011;69616;43.522;1.348;2023-11-25T05:34:02;10.07;;;2.30;;
80307;SDS011;69616;43.522;1.348;2023-11-25T05:36:30;16.05;;;2.60;;
80307;SDS011;69616;43.522;1.348;2023-11-25T05:38:59;13.13;;;2.80;;
80307;SDS011;69616;43.522;1.348;2023-11-25T05:41:25;17.70;;;3.57;;
80307;SDS011;69616;43.522;1.348;2023-11-25T05:43:52;11.98;;;2.40;;
80307;SDS011;69616;43.522;1.348;2023-11-25T05:46:21;9.93;;;2.27;;
80307;SDS011;69616;43.522;1.348;2023-11-25T05:48:51;11.97;;;2.77;;
80307;SDS011;69616;43.522;1.348;2023-11-25T05:51:20;9.10;;;2.38;;
80307;SDS011;69616;43.522;1.348;2023-11-25T05:53:46;12.68;;;2.35;;
80307;SDS011;69616;43.522;1.348;2023-11-25T05:56:11;11.23;;;1.90;;
80307;SDS011;69616;43.522;1.348;2023-11-25T05:58:37;14.52;;;2.40;;
80307;SDS011;69616;43.522;1.348;2023-11-25T06:01:03;14.23;;;3.00;;
80307;SDS011;69616;43.522;1.348;2023-11-25T06:03:29;9.98;;;2.20;;
80307;SDS011;69616;43.522;1.348;2023-11-25T06:05:55;16.42;;;2.20;;
80307;SDS011;69616;43.522;1.348;2023-11-25T06:08:20;12.27;;;2.30;;
80307;SDS011;69616;43.522;1.348;2023-11-25T06:23:58;13.55;;;1.63;;
80307;SDS011;69616;43.522;1.348;2023-11-25T06:26:25;10.45;;;1.98;;
80307;SDS011;69616;43.522;1.348;2023-11-25T06:28:50;9.13;;;1.40;;
80307;SDS011;69616;43.522;1.348;2023-11-25T06:31:16;12.07;;;2.15;;
80307;SDS011;69616;43.522;1.348;2023-11-25T06:33:42;10.00;;;1.90;;
80307;SDS011;69616;43.522;1.348;2023-11-25T06:36:08;12.38;;;1.92;;
80307;SDS011;69616;43.522;1.348;2023-11-25T06:38:35;14.35;;;2.20;;
80307;SDS011;69616;43.522;1.348;2023-11-25T06:41:00;8.00;;;1.87;;
80307;SDS011;69616;43.522;1.348;2023-11-25T06:43:26;12.50;;;1.95;;
80307;SDS011;69616;43.522;1.348;2023-11-25T06:45:52;9.13;;;1.63;;
80307;SDS011;69616;43.522;1.348;2023-11-25T06:48:18;9.48;;;1.50;;
80307;SDS011;69616;43.522;1.348;2023-11-25T06:50:44;14.25;;;1.75;;
80307;SDS011;69616;43.522;1.348;2023-11-25T06:53:10;9.90;;;1.70;;
80307;SDS011;69616;43.522;1.348;2023-11-25T06:55:35;9.98;;;1.90;;
80307;SDS011;69616;43.522;1.348;2023-11-25T06:58:03;11.97;;;1.67;;
80307;SDS011;69616;43.522;1.348;2023-11-25T07:00:29;10.13;;;1.60;;
80307;SDS011;69616;43.522;1.348;2023-11-25T07:02:54;13.15;;;2.00;;
80307;SDS011;69616;43.522;1.348;2023-11-25T07:05:19;8.23;;;1.60;;
80307;SDS011;69616;43.522;1.348;2023-11-25T07:07:45;16.50;;;2.60;;
80307;SDS011;69616;43.522;1.348;2023-11-25T07:10:10;15.50;;;2.17;;
80307;SDS011;69616;43.522;1.348;2023-11-25T07:12:39;12.52;;;2.25;;
80307;SDS011;69616;43.522;1.348;2023-11-25T07:15:05;16.88;;;2.80;;
80307;SDS011;69616;43.522;1.348;2023-11-25T07:17:31;12.07;;;2.38;;
80307;SDS011;69616;43.522;1.348;2023-11-25T07:19:57;14.80;;;2.40;;
80307;SDS011;69616;43.522;1.348;2023-11-25T07:22:23;15.40;;;2.55;;
80307;SDS011;69616;43.522;1.348;2023-11-25T07:24:48;14.00;;;2.77;;
80307;SDS011;69616;43.522;1.348;2023-11-25T07:27:14;13.03;;;2.70;;
80307;SDS011;69616;43.522;1.348;2023-11-25T07:29:44;13.50;;;2.85;;
80307;SDS011;69616;43.522;1.348;2023-11-25T07:32:10;11.55;;;2.33;;
80307;SDS011;69616;43.522;1.348;2023-11-25T07:34:37;15.68;;;1.95;;
80307;SDS011;69616;43.522;1.348;2023-11-25T07:37:03;12.87;;;2.50;;
80307;SDS011;69616;43.522;1.348;2023-11-25T07:39:29;10.02;;;2.05;;
80307;SDS011;69616;43.522;1.348;2023-11-25T07:41:55;14.43;;;2.40;;
80307;SDS011;69616;43.522;1.348;2023-11-25T07:44:23;9.30;;;2.03;;
80307;SDS011;69616;43.522;1.348;2023-11-25T07:46:49;15.60;;;2.70;;
80307;SDS011;69616;43.522;1.348;2023-11-25T07:49:15;12.20;;;2.47;;
80307;SDS011;69616;43.522;1.348;2023-11-25T07:51:41;11.13;;;3.00;;
80307;SDS011;69616;43.522;1.348;2023-11-25T07:54:06;13.40;;;2.90;;
80307;SDS011;69616;43.522;1.348;2023-11-25T07:56:33;10.65;;;2.67;;
80307;SDS011;69616;43.522;1.348;2023-11-25T07:58:59;14.70;;;2.70;;
80307;SDS011;69616;43.522;1.348;2023-11-25T08:01:24;9.68;;;2.42;;
80307;SDS011;69616;43.522;1.348;2023-11-25T08:03:51;8.00;;;2.30;;
80307;SDS011;69616;43.522;1.348;2023-11-25T08:06:17;12.55;;;2.55;;
80307;SDS011;69616;43.522;1.348;2023-11-25T08:08:43;9.95;;;2.50;;
80307;SDS011;69616;43.522;1.348;2023-11-25T08:11:10;10.93;;;2.13;;
80307;SDS011;69616;43.522;1.348;2023-11-25T08:13:36;13.13;;;2.60;;
80307;SDS011;69616;43.522;1.348;2023-11-25T08:16:02;7.35;;;1.60;;
80307;SDS011;69616;43.522;1.348;2023-11-25T08:18:29;7.68;;;1.77;;
80307;SDS011;69616;43.522;1.348;2023-11-25T08:20:55;9.47;;;1.83;;
80307;SDS011;69616;43.522;1.348;2023-11-25T08:23:21;9.87;;;1.87;;
80307;SDS011;69616;43.522;1.348;2023-11-25T08:25:46;8.33;;;1.63;;
80307;SDS011;69616;43.522;1.348;2023-11-25T08:28:12;12.03;;;1.87;;
80307;SDS011;69616;43.522;1.348;2023-11-25T08:30:37;9.50;;;1.40;;
80307;SDS011;69616;43.522;1.348;2023-11-25T08:33:03;10.60;;;1.40;;
80307;SDS011;69616;43.522;1.348;2023-11-25T08:35:29;5.88;;;1.20;;
80307;SDS011;69616;43.522;1.348;2023-11-25T08:37:55;6.13;;;1.47;;
80307;SDS011;69616;43.522;1.348;2023-11-25T08:40:20;8.57;;;1.60;;
80307;SDS011;69616;43.522;1.348;2023-11-25T08:42:46;7.85;;;1.50;;
80307;SDS011;69616;43.522;1.348;2023-11-25T08:45:14;11.63;;;1.90;;
80307;SDS011;69616;43.522;1.348;2023-11-25T08:47:40;5.32;;;1.30;;
80307;SDS011;69616;43.522;1.348;2023-11-25T08:50:07;9.27;;;1.53;;
80307;SDS011;69616;43.522;1.348;2023-11-25T08:52:35;9.35;;;1.40;;
80307;SDS011;69616;43.522;1.348;2023-11-25T08:55:06;8.18;;;1.50;;
80307;SDS011;69616;43.522;1.348;2023-11-25T08:57:35;10.93;;;1.25;;
80307;SDS011;69616;43.522;1.348;2023-11-25T09:00:05;7.10;;;1.57;;
80307;SDS011;69616;43.522;1.348;2023-11-25T09:02:39;6.38;;;1.00;;
80307;SDS011;69616;43.522;1.348;2023-11-25T09:05:08;8.20;;;0.95;;
80307;SDS011;69616;43.522;1.348;2023-11-25T09:07:35;6.22;;;1.02;;
80307;SDS011;69616;43.522;1.348;2023-11-25T09:10:00;11.07;;;1.30;;
80307;SDS011;69616;43.522;1.348;2023-11-25T09:12:30;8.57;;;1.00;;
80307;SDS011;69616;43.522;1.348;2023-11-25T09:14:55;8.70;;;1.00;;
80307;SDS011;69616;43.522;1.348;2023-11-25T09:17:21;5.67;;;0.93;;
80307;SDS011;69616;43.522;1.348;2023-11-25T09:19:46;6.47;;;1.00;;
80307;SDS011;69616;43.522;1.348;2023-11-25T09:22:11;7.83;;;1.60;;
80307;SDS011;69616;43.522;1.348;2023-11-25T09:24:37;8.87;;;1.10;;
80307;SDS011;69616;43.522;1.348;2023-11-25T09:27:04;13.10;;;1.55;;
80307;SDS011;69616;43.522;1.348;2023-11-25T09:29:29;9.23;;;1.30;;
80307;SDS011;69616;43.522;1.348;2023-11-25T09:31:55;8.50;;;1.37;;
80307;SDS011;69616;43.522;1.348;2023-11-25T09:34:20;10.30;;;1.23;;
80307;SDS011;69616;43.522;1.348;2023-11-25T09:36:45;9.73;;;1.57;;
80307;SDS011;69616;43.522;1.348;2023-11-25T09:39:11;7.63;;;1.80;;
80307;SDS011;69616;43.522;1.348;2023-11-25T09:41:36;9.50;;;1.80;;
80307;SDS011;69616;43.522;1.348;2023-11-25T09:44:02;7.15;;;1.42;;
80307;SDS011;69616;43.522;1.348;2023-11-25T09:46:31;9.77;;;1.67;;
80307;SDS011;69616;43.522;1.348;2023-11-25T09:48:57;7.13;;;1.65;;
80307;SDS011;69616;43.522;1.348;2023-11-25T09:51:23;7.68;;;2.00;;
80307;SDS011;69616;43.522;1.348;2023-11-25T09:53:50;8.83;;;1.77;;
80307;SDS011;69616;43.522;1.348;2023-11-25T09:56:21;8.32;;;1.67;;
80307;SDS011;69616;43.522;1.348;2023-11-25T09:58:46;7.20;;;1.77;;
80307;SDS011;69616;43.522;1.348;2023-11-25T10:01:13;8.35;;;1.35;;
80307;SDS011;69616;43.522;1.348;2023-11-25T10:03:39;6.18;;;1.02;;
80307;SDS011;69616;43.522;1.348;2023-11-25T10:06:08;7.85;;;1.25;;
80307;SDS011;69616;43.522;1.348;2023-11-25T10:08:34;8.43;;;1.17;;
80307;SDS011;69616;43.522;1.348;2023-11-25T10:11:04;5.85;;;1.02;;
80307;SDS011;69616;43.522;1.348;2023-11-25T10:13:31;6.55;;;1.20;;
80307;SDS011;69616;43.522;1.348;2023-11-25T10:15:59;6.93;;;0.93;;
80307;SDS011;69616;43.522;1.348;2023-11-25T10:18:27;10.77;;;1.40;;
80307;SDS011;69616;43.522;1.348;2023-11-25T10:20:54;6.50;;;1.02;;
80307;SDS011;69616;43.522;1.348;2023-11-25T10:23:23;5.40;;;1.00;;
80307;SDS011;69616;43.522;1.348;2023-11-25T10:25:49;7.63;;;0.90;;
80307;SDS011;69616;43.522;1.348;2023-11-25T10:28:19;8.98;;;1.00;;
80307;SDS011;69616;43.522;1.348;2023-11-25T10:30:57;7.27;;;1.20;;
80307;SDS011;69616;43.522;1.348;2023-11-25T10:33:25;6.05;;;1.20;;
80307;SDS011;69616;43.522;1.348;2023-11-25T10:35:52;5.63;;;1.35;;
80307;SDS011;69616;43.522;1.348;2023-11-25T10:38:21;10.20;;;1.55;;
80307;SDS011;69616;43.522;1.348;2023-11-25T10:40:50;5.05;;;1.30;;
80307;SDS011;69616;43.522;1.348;2023-11-25T10:43:16;11.13;;;1.80;;
80307;SDS011;69616;43.522;1.348;2023-11-25T10:45:43;8.48;;;1.30;;
80307;SDS011;69616;43.522;1.348;2023-11-25T10:48:09;7.60;;;1.70;;
80307;SDS011;69616;43.522;1.348;2023-11-25T10:50:36;7.20;;;1.27;;
80307;SDS011;69616;43.522;1.348;2023-11-25T10:53:03;8.20;;;1.80;;
80307;SDS011;69616;43.522;1.348;2023-11-25T10:55:30;6.63;;;1.30;;
80307;SDS011;69616;43.522;1.348;2023-11-25T10:57:57;8.02;;;1.35;;
80307;SDS011;69616;43.522;1.348;2023-11-25T11:00:29;9.37;;;1.63;;
80307;SDS011;69616;43.522;1.348;2023-11-25T11:02:55;9.27;;;1.33;;
80307;SDS011;69616;43.522;1.348;2023-11-25T11:05:32;5.80;;;1.10;;
80307;SDS011;69616;43.522;1.348;2023-11-25T11:08:06;8.40;;;1.20;;
80307;SDS011;69616;43.522;1.348;2023-11-25T11:10:58;8.80;;;1.08;;
80307;SDS011;69616;43.522;1.348;2023-11-25T11:13:47;7.77;;;1.20;;
80307;SDS011;69616;43.522;1.348;2023-11-25T11:16:16;15.68;;;4.07;;
80307;SDS011;69616;43.522;1.348;2023-11-25T11:18:44;7.47;;;1.63;;
80307;SDS011;69616;43.522;1.348;2023-11-25T11:21:10;8.23;;;1.30;;
80307;SDS011;69616;43.522;1.348;2023-11-25T11:23:38;6.68;;;0.73;;
80307;SDS011;69616;43.522;1.348;2023-11-25T11:33:40;7.10;;;1.00;;
80307;SDS011;69616;43.522;1.348;2023-11-25T11:36:05;6.75;;;1.05;;
80307;SDS011;69616;43.522;1.348;2023-11-25T11:38:31;6.60;;;0.80;;
80307;SDS011;69616;43.522;1.348;2023-11-25T11:43:23;5.60;;;1.10;;
80307;SDS011;69616;43.522;1.348;2023-11-25T11:45:49;7.27;;;1.10;;
80307;SDS011;69616;43.522;1.348;2023-11-25T11:48:15;7.22;;;1.17;;
80307;SDS011;69616;43.522;1.348;2023-11-25T11:50:41;4.50;;;0.70;;
80307;SDS011;69616;43.522;1.348;2023-11-25T12:00:35;6.40;;;0.93;;
80307;SDS011;69616;43.522;1.348;2023-11-25T12:03:20;5.43;;;1.00;;
80307;SDS011;69616;43.522;1.348;2023-11-25T12:05:46;5.60;;;1.17;;
80307;SDS011;69616;43.522;1.348;2023-11-25T12:08:12;5.70;;;1.27;;
80307;SDS011;69616;43.522;1.348;2023-11-25T12:10:37;8.25;;;1.00;;
80307;SDS011;69616;43.522;1.348;2023-11-25T12:13:03;7.27;;;1.20;;
80307;SDS011;69616;43.522;1.348;2023-11-25T12:15:29;6.55;;;1.00;;
80307;SDS011;69616;43.522;1.348;2023-11-25T12:17:55;7.03;;;1.40;;
80307;SDS011;69616;43.522;1.348;2023-11-25T12:20:21;5.22;;;1.02;;
80307;SDS011;69616;43.522;1.348;2023-11-25T12:22:47;7.30;;;1.27;;
80307;SDS011;69616;43.522;1.348;2023-11-25T12:25:14;8.07;;;1.48;;
80307;SDS011;69616;43.522;1.348;2023-11-25T12:27:54;7.68;;;1.20;;
80307;SDS011;69616;43.522;1.348;2023-11-25T12:30:33;6.50;;;1.52;;
80307;SDS011;69616;43.522;1.348;2023-11-25T12:33:00;7.80;;;1.30;;
80307;SDS011;69616;43.522;1.348;2023-11-25T12:35:26;7.57;;;1.50;;
80307;SDS011;69616;43.522;1.348;2023-11-25T12:37:51;7.80;;;1.33;;
80307;SDS011;69616;43.522;1.348;2023-11-25T12:40:22;7.73;;;1.20;;
80307;SDS011;69616;43.522;1.348;2023-11-25T12:42:52;7.18;;;1.40;;
80307;SDS011;69616;43.522;1.348;2023-11-25T12:47:55;9.57;;;1.50;;
80307;SDS011;69616;43.522;1.348;2023-11-25T12:50:25;5.28;;;1.20;;
80307;SDS011;69616;43.522;1.348;2023-11-25T12:53:07;5.40;;;1.17;;
80307;SDS011;69616;43.522;1.348;2023-11-25T12:55:51;7.10;;;1.75;;
80307;SDS011;69616;43.522;1.348;2023-11-25T12:58:17;5.82;;;1.45;;
80307;SDS011;69616;43.522;1.348;2023-11-25T13:03:22;6.55;;;1.30;;
80307;SDS011;69616;43.522;1.348;2023-11-25T13:06:14;8.53;;;1.33;;
80307;SDS011;69616;43.522;1.348;2023-11-25T13:08:45;9.18;;;1.70;;
80307;SDS011;69616;43.522;1.348;2023-11-25T13:11:11;9.23;;;1.75;;
80307;SDS011;69616;43.522;1.348;2023-11-25T13:13:40;7.10;;;1.45;;
80307;SDS011;69616;43.522;1.348;2023-11-25T13:16:05;10.13;;;1.53;;
80307;SDS011;69616;43.522;1.348;2023-11-25T13:18:35;7.38;;;1.63;;
80307;SDS011;69616;43.522;1.348;2023-11-25T13:21:01;6.53;;;1.20;;
80307;SDS011;69616;43.522;1.348;2023-11-25T13:23:32;6.80;;;1.10;;
80307;SDS011;69616;43.522;1.348;2023-11-25T13:26:01;5.28;;;1.20;;
80307;SDS011;69616;43.522;1.348;2023-11-25T13:28:27;6.13;;;1.13;;
80307;SDS011;69616;43.522;1.348;2023-11-25T13:30:52;7.73;;;1.17;;
80307;SDS011;69616;43.522;1.348;2023-11-25T13:33:17;4.90;;;0.80;;
80307;SDS011;69616;43.522;1.348;2023-11-25T13:35:43;5.82;;;0.80;;
80307;SDS011;69616;43.522;1.348;2023-11-25T13:38:09;8.57;;;1.23;;
80307;SDS011;69616;43.522;1.348;2023-11-25T13:40:37;6.38;;;1.10;;
80307;SDS011;69616;43.522;1.348;2023-11-25T13:43:04;7.03;;;1.08;;
80307;SDS011;69616;43.522;1.348;2023-11-25T13:45:30;5.05;;;1.00;;
80307;SDS011;69616;43.522;1.348;2023-11-25T13:47:56;5.20;;;1.00;;
80307;SDS011;69616;43.522;1.348;2023-11-25T13:50:25;8.20;;;1.13;;
80307;SDS011;69616;43.522;1.348;2023-11-25T13:52:51;6.60;;;1.45;;
80307;SDS011;69616;43.522;1.348;2023-11-25T13:55:17;4.75;;;0.90;;
80307;SDS011;69616;43.522;1.348;2023-11-25T13:57:43;5.70;;;1.00;;
80307;SDS011;69616;43.522;1.348;2023-11-25T14:00:10;5.13;;;0.90;;
80307;SDS011;69616;43.522;1.348;2023-11-25T14:02:35;2.78;;;0.57;;
80307;SDS011;69616;43.522;1.348;2023-11-25T14:05:01;4.18;;;0.70;;
80307;SDS011;69616;43.522;1.348;2023-11-25T14:07:28;5.03;;;0.70;;
80307;SDS011;69616;43.522;1.348;2023-11-25T14:09:54;6.22;;;0.70;;
80307;SDS011;69616;43.522;1.348;2023-11-25T14:12:20;4.53;;;0.60;;
80307;SDS011;69616;43.522;1.348;2023-11-25T14:14:46;4.30;;;0.80;;
80307;SDS011;69616;43.522;1.348;2023-11-25T14:17:12;4.93;;;0.70;;
80307;SDS011;69616;43.522;1.348;2023-11-25T14:19:41;5.38;;;0.63;;
80307;SDS011;69616;43.522;1.348;2023-11-25T14:22:13;4.47;;;0.70;;
80307;SDS011;69616;43.522;1.348;2023-11-25T14:24:40;4.65;;;0.70;;
80307;SDS011;69616;43.522;1.348;2023-11-25T14:27:06;3.67;;;0.63;;
80307;SDS011;69616;43.522;1.348;2023-11-25T14:29:31;4.63;;;0.90;;
80307;SDS011;69616;43.522;1.348;2023-11-25T14:31:57;5.17;;;1.00;;
80307;SDS011;69616;43.522;1.348;2023-11-25T14:34:22;5.25;;;1.05;;
80307;SDS011;69616;43.522;1.348;2023-11-25T14:36:48;5.50;;;1.13;;
80307;SDS011;69616;43.522;1.348;2023-11-25T14:39:13;5.97;;;0.83;;
80307;SDS011;69616;43.522;1.348;2023-11-25T14:41:46;5.03;;;0.70;;
80307;SDS011;69616;43.522;1.348;2023-11-25T14:44:15;4.70;;;0.80;;
80307;SDS011;69616;43.522;1.348;2023-11-25T14:46:41;6.57;;;1.03;;
80307;SDS011;69616;43.522;1.348;2023-11-25T14:49:07;4.10;;;0.60;;
80307;SDS011;69616;43.522;1.348;2023-11-25T14:51:32;4.83;;;1.00;;
80307;SDS011;69616;43.522;1.348;2023-11-25T14:53:58;3.93;;;0.57;;
80307;SDS011;69616;43.522;1.348;2023-11-25T14:56:23;4.25;;;0.63;;
80307;SDS011;69616;43.522;1.348;2023-11-25T14:58:48;5.43;;;0.63;;
80307;SDS011;69616;43.522;1.348;2023-11-25T15:01:14;4.23;;;0.60;;
80307;SDS011;69616;43.522;1.348;2023-11-25T15:03:41;4.88;;;0.70;;
80307;SDS011;69616;43.522;1.348;2023-11-25T15:06:08;7.25;;;0.93;;
80307;SDS011;69616;43.522;1.348;2023-11-25T15:08:34;4.50;;;0.80;;
80307;SDS011;69616;43.522;1.348;2023-11-25T15:11:03;5.93;;;0.70;;
80307;SDS011;69616;43.522;1.348;2023-11-25T15:13:29;4.05;;;0.70;;
80307;SDS011;69616;43.522;1.348;2023-11-25T15:15:54;3.93;;;0.80;;
80307;SDS011;69616;43.522;1.348;2023-11-25T15:18:20;5.82;;;0.70;;
80307;SDS011;69616;43.522;1.348;2023-11-25T15:20:46;3.80;;;0.77;;
80307;SDS011;69616;43.522;1.348;2023-11-25T15:23:11;4.80;;;1.13;;
80307;SDS011;69616;43.522;1.348;2023-11-25T15:25:37;4.97;;;1.30;;
80307;SDS011;69616;43.522;1.348;2023-11-25T15:28:05;6.15;;;1.70;;
80307;SDS011;69616;43.522;1.348;2023-11-25T15:30:31;7.20;;;1.75;;
80307;SDS011;69616;43.522;1.348;2023-11-25T15:32:57;13.90;;;1.50;;
80307;SDS011;69616;43.522;1.348;2023-11-25T15:35:24;8.43;;;1.75;;